Floodwood, Minnesota
Current Conditions -  °F | °C
As of 11:17 AM on Saturday 25 Oct 2014 (Local Time) from KCOQ Reporting Station
Clear Clear  
Wind Chill: 54°   Ceiling: Unl
Heat Index: 54°   Visibility: 10mi
Dew Point: 28°   Wind: 20mph
Humidity: 38%   Direction: 270°W
Pressure: 29.94"   Gusts: 26mph
Location:  46.93°N, 92.92°W
Report Text: KCOQ 251617Z AUTO 27017G23KT 10SM CLR 12/M02 A2994 RMK AO2
Loading
Personal Weather Stations






























Interactive Weather Map
Tropical Storm Tracking
New forecast layout! Learn more

10-Day Weather Forecast

Advertisements
Track Severe Weather on mobile